sensor_id;sensor_type;location;lat;lon;timestamp;temperature;humidity
56172;DHT22;42052;41.634;-0.946;2022-08-23T00:01:26;27.00;53.00
56172;DHT22;42052;41.634;-0.946;2022-08-23T00:03:54;27.00;53.00
56172;DHT22;42052;41.634;-0.946;2022-08-23T00:06:21;27.00;52.80
56172;DHT22;42052;41.634;-0.946;2022-08-23T00:08:51;27.00;52.70
56172;DHT22;42052;41.634;-0.946;2022-08-23T00:13:52;27.10;52.60
56172;DHT22;42052;41.634;-0.946;2022-08-23T00:16:18;27.10;52.40
56172;DHT22;42052;41.634;-0.946;2022-08-23T00:18:43;27.10;52.40
56172;DHT22;42052;41.634;-0.946;2022-08-23T00:21:11;27.10;53.20
56172;DHT22;42052;41.634;-0.946;2022-08-23T00:23:38;27.10;52.40
56172;DHT22;42052;41.634;-0.946;2022-08-23T00:26:04;27.10;52.40
56172;DHT22;42052;41.634;-0.946;2022-08-23T00:28:30;27.10;52.30
56172;DHT22;42052;41.634;-0.946;2022-08-23T00:30:56;27.10;52.20
56172;DHT22;42052;41.634;-0.946;2022-08-23T00:33:23;27.20;52.20
56172;DHT22;42052;41.634;-0.946;2022-08-23T00:35:49;27.20;52.20
56172;DHT22;42052;41.634;-0.946;2022-08-23T00:38:15;27.20;52.10
56172;DHT22;42052;41.634;-0.946;2022-08-23T00:40:47;27.20;52.10
56172;DHT22;42052;41.634;-0.946;2022-08-23T00:43:17;27.10;52.10
56172;DHT22;42052;41.634;-0.946;2022-08-23T00:46:12;27.10;52.10
56172;DHT22;42052;41.634;-0.946;2022-08-23T00:49:00;27.10;52.20
56172;DHT22;42052;41.634;-0.946;2022-08-23T00:54:32;27.10;52.10
56172;DHT22;42052;41.634;-0.946;2022-08-23T00:57:01;27.10;52.00
56172;DHT22;42052;41.634;-0.946;2022-08-23T00:59:28;27.20;52.20
56172;DHT22;42052;41.634;-0.946;2022-08-23T01:01:54;27.10;52.20
56172;DHT22;42052;41.634;-0.946;2022-08-23T01:04:20;27.10;52.10
56172;DHT22;42052;41.634;-0.946;2022-08-23T01:07:02;27.10;52.00
56172;DHT22;42052;41.634;-0.946;2022-08-23T01:09:29;27.10;52.10
56172;DHT22;42052;41.634;-0.946;2022-08-23T01:12:04;27.10;52.00
56172;DHT22;42052;41.634;-0.946;2022-08-23T01:14:39;27.10;52.10
56172;DHT22;42052;41.634;-0.946;2022-08-23T01:17:13;27.10;52.00
56172;DHT22;42052;41.634;-0.946;2022-08-23T01:19:56;27.10;52.00
56172;DHT22;42052;41.634;-0.946;2022-08-23T01:25:21;27.10;52.00
56172;DHT22;42052;41.634;-0.946;2022-08-23T01:27:48;27.10;52.00
56172;DHT22;42052;41.634;-0.946;2022-08-23T01:30:18;27.10;52.00
56172;DHT22;42052;41.634;-0.946;2022-08-23T01:32:48;27.10;52.00
56172;DHT22;42052;41.634;-0.946;2022-08-23T01:35:17;27.10;51.90
56172;DHT22;42052;41.634;-0.946;2022-08-23T01:37:43;27.10;51.90
56172;DHT22;42052;41.634;-0.946;2022-08-23T01:40:10;27.10;51.90
56172;DHT22;42052;41.634;-0.946;2022-08-23T01:42:36;27.10;51.90
56172;DHT22;42052;41.634;-0.946;2022-08-23T01:45:10;27.10;51.90
56172;DHT22;42052;41.634;-0.946;2022-08-23T01:47:37;27.10;51.80
56172;DHT22;42052;41.634;-0.946;2022-08-23T01:50:04;27.10;51.80
56172;DHT22;42052;41.634;-0.946;2022-08-23T01:52:33;27.10;51.70
56172;DHT22;42052;41.634;-0.946;2022-08-23T01:54:59;27.10;51.70
56172;DHT22;42052;41.634;-0.946;2022-08-23T01:57:27;27.10;51.70
56172;DHT22;42052;41.634;-0.946;2022-08-23T01:59:54;27.10;51.80
56172;DHT22;42052;41.634;-0.946;2022-08-23T02:02:20;27.10;51.70
56172;DHT22;42052;41.634;-0.946;2022-08-23T02:04:46;27.10;51.70
56172;DHT22;42052;41.634;-0.946;2022-08-23T02:07:12;27.10;51.70
56172;DHT22;42052;41.634;-0.946;2022-08-23T02:09:38;27.10;51.60
56172;DHT22;42052;41.634;-0.946;2022-08-23T02:12:04;27.10;51.60
56172;DHT22;42052;41.634;-0.946;2022-08-23T02:14:30;27.10;51.60
56172;DHT22;42052;41.634;-0.946;2022-08-23T02:16:56;27.10;51.60
56172;DHT22;42052;41.634;-0.946;2022-08-23T02:19:23;27.10;51.60
56172;DHT22;42052;41.634;-0.946;2022-08-23T02:21:49;27.10;51.50
56172;DHT22;42052;41.634;-0.946;2022-08-23T02:24:18;27.10;51.50
56172;DHT22;42052;41.634;-0.946;2022-08-23T02:26:47;27.10;51.50
56172;DHT22;42052;41.634;-0.946;2022-08-23T02:29:16;27.10;51.50
56172;DHT22;42052;41.634;-0.946;2022-08-23T02:31:42;27.10;51.50
56172;DHT22;42052;41.634;-0.946;2022-08-23T02:34:13;27.10;51.50
56172;DHT22;42052;41.634;-0.946;2022-08-23T02:36:39;27.10;51.50
56172;DHT22;42052;41.634;-0.946;2022-08-23T02:39:07;27.10;51.50
56172;DHT22;42052;41.634;-0.946;2022-08-23T02:41:33;27.00;51.50
56172;DHT22;42052;41.634;-0.946;2022-08-23T02:44:00;27.10;51.50
56172;DHT22;42052;41.634;-0.946;2022-08-23T02:46:26;27.10;51.40
56172;DHT22;42052;41.634;-0.946;2022-08-23T02:48:52;27.10;51.40
56172;DHT22;42052;41.634;-0.946;2022-08-23T02:51:18;27.10;51.40
56172;DHT22;42052;41.634;-0.946;2022-08-23T02:53:44;27.10;51.40
56172;DHT22;42052;41.634;-0.946;2022-08-23T02:56:13;27.10;51.50
56172;DHT22;42052;41.634;-0.946;2022-08-23T02:58:39;27.10;51.50
56172;DHT22;42052;41.634;-0.946;2022-08-23T03:01:13;27.10;51.50
56172;DHT22;42052;41.634;-0.946;2022-08-23T03:03:39;27.10;51.40
56172;DHT22;42052;41.634;-0.946;2022-08-23T03:06:04;27.10;51.40
56172;DHT22;42052;41.634;-0.946;2022-08-23T03:08:30;27.10;51.40
56172;DHT22;42052;41.634;-0.946;2022-08-23T03:10:56;27.10;51.50
56172;DHT22;42052;41.634;-0.946;2022-08-23T03:13:22;27.10;51.50
56172;DHT22;42052;41.634;-0.946;2022-08-23T03:15:48;27.10;51.50
56172;DHT22;42052;41.634;-0.946;2022-08-23T03:18:14;27.00;51.40
56172;DHT22;42052;41.634;-0.946;2022-08-23T03:20:40;27.10;51.40
56172;DHT22;42052;41.634;-0.946;2022-08-23T03:23:07;27.10;51.40
56172;DHT22;42052;41.634;-0.946;2022-08-23T03:25:33;27.10;51.50
56172;DHT22;42052;41.634;-0.946;2022-08-23T03:28:04;27.10;51.40
56172;DHT22;42052;41.634;-0.946;2022-08-23T03:30:31;27.10;51.50
56172;DHT22;42052;41.634;-0.946;2022-08-23T03:32:59;27.10;51.40
56172;DHT22;42052;41.634;-0.946;2022-08-23T03:35:25;27.00;51.40
56172;DHT22;42052;41.634;-0.946;2022-08-23T03:37:52;27.00;51.30
56172;DHT22;42052;41.634;-0.946;2022-08-23T03:40:19;27.00;51.50
56172;DHT22;42052;41.634;-0.946;2022-08-23T03:42:45;27.00;51.40
56172;DHT22;42052;41.634;-0.946;2022-08-23T03:45:11;27.00;51.40
56172;DHT22;42052;41.634;-0.946;2022-08-23T03:47:37;27.10;51.50
56172;DHT22;42052;41.634;-0.946;2022-08-23T03:50:03;27.00;51.50
56172;DHT22;42052;41.634;-0.946;2022-08-23T03:52:29;27.00;51.50
56172;DHT22;42052;41.634;-0.946;2022-08-23T03:54:55;27.00;51.60
56172;DHT22;42052;41.634;-0.946;2022-08-23T03:57:21;27.00;51.60
56172;DHT22;42052;41.634;-0.946;2022-08-23T03:59:47;27.00;51.60
56172;DHT22;42052;41.634;-0.946;2022-08-23T04:02:13;27.00;51.60
56172;DHT22;42052;41.634;-0.946;2022-08-23T04:04:40;27.00;51.60
56172;DHT22;42052;41.634;-0.946;2022-08-23T04:07:07;27.00;51.60
56172;DHT22;42052;41.634;-0.946;2022-08-23T04:09:33;27.00;51.60
56172;DHT22;42052;41.634;-0.946;2022-08-23T04:11:59;27.00;51.70
56172;DHT22;42052;41.634;-0.946;2022-08-23T04:14:25;27.00;51.70
56172;DHT22;42052;41.634;-0.946;2022-08-23T04:16:51;27.00;51.60
56172;DHT22;42052;41.634;-0.946;2022-08-23T04:19:17;27.00;51.70
56172;DHT22;42052;41.634;-0.946;2022-08-23T04:21:46;27.00;51.50
56172;DHT22;42052;41.634;-0.946;2022-08-23T04:24:13;27.00;51.50
56172;DHT22;42052;41.634;-0.946;2022-08-23T04:26:40;27.10;51.60
56172;DHT22;42052;41.634;-0.946;2022-08-23T04:29:07;27.00;51.50
56172;DHT22;42052;41.634;-0.946;2022-08-23T04:31:33;27.10;51.60
56172;DHT22;42052;41.634;-0.946;2022-08-23T04:33:59;27.10;51.60
56172;DHT22;42052;41.634;-0.946;2022-08-23T04:36:25;27.10;51.50
56172;DHT22;42052;41.634;-0.946;2022-08-23T04:38:52;27.00;51.40
56172;DHT22;42052;41.634;-0.946;2022-08-23T04:41:18;27.00;51.30
56172;DHT22;42052;41.634;-0.946;2022-08-23T04:44:02;27.00;51.40
56172;DHT22;42052;41.634;-0.946;2022-08-23T04:46:30;27.10;51.30
56172;DHT22;42052;41.634;-0.946;2022-08-23T04:48:56;27.10;51.30
56172;DHT22;42052;41.634;-0.946;2022-08-23T04:51:21;27.10;51.20
56172;DHT22;42052;41.634;-0.946;2022-08-23T04:53:47;27.10;51.20
56172;DHT22;42052;41.634;-0.946;2022-08-23T04:56:13;27.10;51.20
56172;DHT22;42052;41.634;-0.946;2022-08-23T04:58:40;27.10;51.20
56172;DHT22;42052;41.634;-0.946;2022-08-23T05:01:07;27.10;52.10
56172;DHT22;42052;41.634;-0.946;2022-08-23T05:03:34;27.10;52.10
56172;DHT22;42052;41.634;-0.946;2022-08-23T05:06:00;27.10;53.90
56172;DHT22;42052;41.634;-0.946;2022-08-23T05:08:26;27.20;54.60
56172;DHT22;42052;41.634;-0.946;2022-08-23T05:10:52;27.20;54.80
56172;DHT22;42052;41.634;-0.946;2022-08-23T05:13:18;27.20;53.90
56172;DHT22;42052;41.634;-0.946;2022-08-23T05:15:44;27.10;54.20
56172;DHT22;42052;41.634;-0.946;2022-08-23T05:18:11;27.20;54.40
56172;DHT22;42052;41.634;-0.946;2022-08-23T05:20:37;27.20;54.50
56172;DHT22;42052;41.634;-0.946;2022-08-23T05:23:04;27.20;54.40
56172;DHT22;42052;41.634;-0.946;2022-08-23T05:25:29;27.20;54.30
56172;DHT22;42052;41.634;-0.946;2022-08-23T05:28:34;27.20;54.00
56172;DHT22;42052;41.634;-0.946;2022-08-23T05:31:03;27.20;53.70
56172;DHT22;42052;41.634;-0.946;2022-08-23T05:33:31;27.20;53.50
56172;DHT22;42052;41.634;-0.946;2022-08-23T05:35:57;27.10;53.40
56172;DHT22;42052;41.634;-0.946;2022-08-23T05:38:25;27.20;53.50
56172;DHT22;42052;41.634;-0.946;2022-08-23T05:40:53;27.20;53.50
56172;DHT22;42052;41.634;-0.946;2022-08-23T05:43:19;27.10;53.30
56172;DHT22;42052;41.634;-0.946;2022-08-23T05:45:45;27.20;53.20
56172;DHT22;42052;41.634;-0.946;2022-08-23T05:48:13;27.10;53.00
56172;DHT22;42052;41.634;-0.946;2022-08-23T05:50:40;27.20;53.10
56172;DHT22;42052;41.634;-0.946;2022-08-23T05:53:07;27.10;52.90
56172;DHT22;42052;41.634;-0.946;2022-08-23T05:55:35;27.20;52.90
56172;DHT22;42052;41.634;-0.946;2022-08-23T05:58:01;27.10;52.80
56172;DHT22;42052;41.634;-0.946;2022-08-23T06:00:27;27.10;52.80
56172;DHT22;42052;41.634;-0.946;2022-08-23T06:02:53;27.10;52.90
56172;DHT22;42052;41.634;-0.946;2022-08-23T06:05:20;27.10;52.90
56172;DHT22;42052;41.634;-0.946;2022-08-23T06:07:46;27.10;52.90
56172;DHT22;42052;41.634;-0.946;2022-08-23T06:10:12;27.10;52.80
56172;DHT22;42052;41.634;-0.946;2022-08-23T06:12:38;27.10;52.60
56172;DHT22;42052;41.634;-0.946;2022-08-23T06:15:04;27.10;52.60
56172;DHT22;42052;41.634;-0.946;2022-08-23T06:17:30;27.10;52.50
56172;DHT22;42052;41.634;-0.946;2022-08-23T06:19:56;27.10;52.50
56172;DHT22;42052;41.634;-0.946;2022-08-23T06:22:22;27.10;52.50
56172;DHT22;42052;41.634;-0.946;2022-08-23T06:24:48;27.10;52.40
56172;DHT22;42052;41.634;-0.946;2022-08-23T06:27:14;27.10;53.10
56172;DHT22;42052;41.634;-0.946;2022-08-23T06:29:41;27.10;52.30
56172;DHT22;42052;41.634;-0.946;2022-08-23T06:32:07;27.10;52.30
56172;DHT22;42052;41.634;-0.946;2022-08-23T06:34:36;27.10;52.20
56172;DHT22;42052;41.634;-0.946;2022-08-23T06:37:05;27.10;52.30
56172;DHT22;42052;41.634;-0.946;2022-08-23T06:39:31;27.10;52.20
56172;DHT22;42052;41.634;-0.946;2022-08-23T06:42:08;27.10;52.10
56172;DHT22;42052;41.634;-0.946;2022-08-23T06:44:35;27.10;52.10
56172;DHT22;42052;41.634;-0.946;2022-08-23T06:47:02;27.10;52.00
56172;DHT22;42052;41.634;-0.946;2022-08-23T06:49:28;27.10;52.00
56172;DHT22;42052;41.634;-0.946;2022-08-23T06:51:55;27.10;52.00
56172;DHT22;42052;41.634;-0.946;2022-08-23T06:54:24;27.10;52.70
56172;DHT22;42052;41.634;-0.946;2022-08-23T06:56:51;27.10;52.00
56172;DHT22;42052;41.634;-0.946;2022-08-23T06:59:17;27.10;52.00
56172;DHT22;42052;41.634;-0.946;2022-08-23T07:02:04;27.10;52.00
56172;DHT22;42052;41.634;-0.946;2022-08-23T07:04:36;27.10;52.00
56172;DHT22;42052;41.634;-0.946;2022-08-23T07:07:03;27.10;51.90
56172;DHT22;42052;41.634;-0.946;2022-08-23T07:09:31;27.10;51.90
56172;DHT22;42052;41.634;-0.946;2022-08-23T07:11:58;27.10;51.90
56172;DHT22;42052;41.634;-0.946;2022-08-23T07:14:24;27.10;52.00
56172;DHT22;42052;41.634;-0.946;2022-08-23T07:16:53;27.10;51.90
56172;DHT22;42052;41.634;-0.946;2022-08-23T07:19:21;27.10;52.00
56172;DHT22;42052;41.634;-0.946;2022-08-23T07:21:48;27.10;51.90
56172;DHT22;42052;41.634;-0.946;2022-08-23T07:24:16;27.10;51.90
56172;DHT22;42052;41.634;-0.946;2022-08-23T07:26:43;27.10;51.80
56172;DHT22;42052;41.634;-0.946;2022-08-23T07:29:10;27.10;51.90
56172;DHT22;42052;41.634;-0.946;2022-08-23T07:31:45;27.10;51.80
56172;DHT22;42052;41.634;-0.946;2022-08-23T07:34:11;27.10;51.80
56172;DHT22;42052;41.634;-0.946;2022-08-23T07:36:39;27.20;52.10
56172;DHT22;42052;41.634;-0.946;2022-08-23T07:39:06;27.20;51.90
56172;DHT22;42052;41.634;-0.946;2022-08-23T07:41:33;27.20;51.90
56172;DHT22;42052;41.634;-0.946;2022-08-23T07:44:01;27.20;51.90
56172;DHT22;42052;41.634;-0.946;2022-08-23T07:46:28;27.20;51.90
56172;DHT22;42052;41.634;-0.946;2022-08-23T07:48:59;27.20;51.90
56172;DHT22;42052;41.634;-0.946;2022-08-23T07:51:26;27.10;51.80
56172;DHT22;42052;41.634;-0.946;2022-08-23T07:53:52;27.20;51.90
56172;DHT22;42052;41.634;-0.946;2022-08-23T07:56:19;27.20;51.80
56172;DHT22;42052;41.634;-0.946;2022-08-23T07:58:46;27.10;51.80
56172;DHT22;42052;41.634;-0.946;2022-08-23T08:01:21;27.10;51.70
56172;DHT22;42052;41.634;-0.946;2022-08-23T08:03:49;27.20;51.80
56172;DHT22;42052;41.634;-0.946;2022-08-23T08:06:20;27.20;51.80
56172;DHT22;42052;41.634;-0.946;2022-08-23T08:08:47;27.20;51.80
56172;DHT22;42052;41.634;-0.946;2022-08-23T08:11:14;27.20;51.90
56172;DHT22;42052;41.634;-0.946;2022-08-23T08:13:44;27.20;51.70
56172;DHT22;42052;41.634;-0.946;2022-08-23T08:16:27;27.20;51.70
56172;DHT22;42052;41.634;-0.946;2022-08-23T08:18:55;27.20;51.70
56172;DHT22;42052;41.634;-0.946;2022-08-23T08:21:21;27.20;51.70
56172;DHT22;42052;41.634;-0.946;2022-08-23T08:23:47;27.20;51.70
56172;DHT22;42052;41.634;-0.946;2022-08-23T08:26:13;27.20;51.60
56172;DHT22;42052;41.634;-0.946;2022-08-23T08:28:39;27.20;51.80
56172;DHT22;42052;41.634;-0.946;2022-08-23T08:31:06;27.20;51.60
56172;DHT22;42052;41.634;-0.946;2022-08-23T08:33:32;27.20;51.70
56172;DHT22;42052;41.634;-0.946;2022-08-23T08:35:59;27.20;51.60
56172;DHT22;42052;41.634;-0.946;2022-08-23T08:38:25;27.20;51.60
56172;DHT22;42052;41.634;-0.946;2022-08-23T08:41:12;27.20;51.70
56172;DHT22;42052;41.634;-0.946;2022-08-23T08:46:22;27.20;51.50
56172;DHT22;42052;41.634;-0.946;2022-08-23T08:48:52;27.20;51.70
56172;DHT22;42052;41.634;-0.946;2022-08-23T08:54:09;27.20;51.40
56172;DHT22;42052;41.634;-0.946;2022-08-23T08:56:38;27.20;51.30
56172;DHT22;42052;41.634;-0.946;2022-08-23T08:59:09;27.20;51.30
56172;DHT22;42052;41.634;-0.946;2022-08-23T09:01:37;27.20;51.20
56172;DHT22;42052;41.634;-0.946;2022-08-23T09:04:04;27.20;51.20
56172;DHT22;42052;41.634;-0.946;2022-08-23T09:12:23;27.30;51.20
56172;DHT22;42052;41.634;-0.946;2022-08-23T09:18:12;27.30;51.20
56172;DHT22;42052;41.634;-0.946;2022-08-23T09:20:39;27.30;51.10
56172;DHT22;42052;41.634;-0.946;2022-08-23T09:23:18;27.30;51.10
56172;DHT22;42052;41.634;-0.946;2022-08-23T09:25:57;27.30;51.10
56172;DHT22;42052;41.634;-0.946;2022-08-23T09:28:33;27.30;51.00
56172;DHT22;42052;41.634;-0.946;2022-08-23T09:31:00;27.30;51.00
56172;DHT22;42052;41.634;-0.946;2022-08-23T09:33:41;27.30;51.00
56172;DHT22;42052;41.634;-0.946;2022-08-23T09:36:15;27.30;51.10
56172;DHT22;42052;41.634;-0.946;2022-08-23T09:38:55;27.30;51.00
56172;DHT22;42052;41.634;-0.946;2022-08-23T09:41:40;27.30;50.90
56172;DHT22;42052;41.634;-0.946;2022-08-23T09:44:09;27.30;50.90
56172;DHT22;42052;41.634;-0.946;2022-08-23T09:46:38;27.30;51.00
56172;DHT22;42052;41.634;-0.946;2022-08-23T09:49:26;27.30;50.90
56172;DHT22;42052;41.634;-0.946;2022-08-23T09:51:53;27.30;50.90
56172;DHT22;42052;41.634;-0.946;2022-08-23T09:54:32;27.30;50.90
56172;DHT22;42052;41.634;-0.946;2022-08-23T09:57:01;27.40;51.10
56172;DHT22;42052;41.634;-0.946;2022-08-23T10:01:56;27.30;50.90
56172;DHT22;42052;41.634;-0.946;2022-08-23T10:04:53;27.30;50.90
56172;DHT22;42052;41.634;-0.946;2022-08-23T10:09:54;27.40;51.00
56172;DHT22;42052;41.634;-0.946;2022-08-23T10:12:20;27.40;51.00
56172;DHT22;42052;41.634;-0.946;2022-08-23T10:14:46;27.40;51.00
56172;DHT22;42052;41.634;-0.946;2022-08-23T10:17:34;27.40;51.00
56172;DHT22;42052;41.634;-0.946;2022-08-23T10:25:58;27.40;51.00
56172;DHT22;42052;41.634;-0.946;2022-08-23T10:28:30;27.40;51.00
56172;DHT22;42052;41.634;-0.946;2022-08-23T10:31:37;27.40;50.90
56172;DHT22;42052;41.634;-0.946;2022-08-23T10:34:39;27.40;51.00
56172;DHT22;42052;41.634;-0.946;2022-08-23T10:39:58;27.40;50.90
56172;DHT22;42052;41.634;-0.946;2022-08-23T10:42:42;27.40;50.90
56172;DHT22;42052;41.634;-0.946;2022-08-23T10:45:35;27.40;51.00
56172;DHT22;42052;41.634;-0.946;2022-08-23T10:50:50;27.50;50.70
56172;DHT22;42052;41.634;-0.946;2022-08-23T10:53:19;27.50;51.20
56172;DHT22;42052;41.634;-0.946;2022-08-23T11:14:41;27.50;50.80
56172;DHT22;42052;41.634;-0.946;2022-08-23T11:17:11;27.50;50.90
56172;DHT22;42052;41.634;-0.946;2022-08-23T11:19:54;27.50;50.90
56172;DHT22;42052;41.634;-0.946;2022-08-23T11:24:54;27.50;50.90
56172;DHT22;42052;41.634;-0.946;2022-08-23T11:27:38;27.50;50.90
56172;DHT22;42052;41.634;-0.946;2022-08-23T11:30:37;27.50;51.00
56172;DHT22;42052;41.634;-0.946;2022-08-23T11:33:57;27.60;51.00
56172;DHT22;42052;41.634;-0.946;2022-08-23T11:36:23;27.60;51.00
56172;DHT22;42052;41.634;-0.946;2022-08-23T11:43:49;27.60;51.00
56172;DHT22;42052;41.634;-0.946;2022-08-23T11:52:22;27.60;50.90
56172;DHT22;42052;41.634;-0.946;2022-08-23T12:03:57;27.60;50.80
56172;DHT22;42052;41.634;-0.946;2022-08-23T12:06:54;27.60;50.80
56172;DHT22;42052;41.634;-0.946;2022-08-23T12:22:25;27.70;50.80
56172;DHT22;42052;41.634;-0.946;2022-08-23T12:24:55;27.70;50.80
56172;DHT22;42052;41.634;-0.946;2022-08-23T12:33:05;27.70;50.70
56172;DHT22;42052;41.634;-0.946;2022-08-23T12:36:14;27.70;50.60
56172;DHT22;42052;41.634;-0.946;2022-08-23T12:41:27;27.70;50.60
56172;DHT22;42052;41.634;-0.946;2022-08-23T12:44:07;27.70;50.60
56172;DHT22;42052;41.634;-0.946;2022-08-23T12:46:39;27.70;50.60
56172;DHT22;42052;41.634;-0.946;2022-08-23T12:49:08;27.70;50.60
56172;DHT22;42052;41.634;-0.946;2022-08-23T12:51:42;27.70;50.70
56172;DHT22;42052;41.634;-0.946;2022-08-23T12:54:15;27.80;50.70
56172;DHT22;42052;41.634;-0.946;2022-08-23T12:56:45;27.80;50.70
56172;DHT22;42052;41.634;-0.946;2022-08-23T12:59:33;27.80;50.70
56172;DHT22;42052;41.634;-0.946;2022-08-23T13:02:04;27.80;50.70
56172;DHT22;42052;41.634;-0.946;2022-08-23T13:04:31;27.70;50.60
56172;DHT22;42052;41.634;-0.946;2022-08-23T13:07:03;27.80;50.70
56172;DHT22;42052;41.634;-0.946;2022-08-23T13:09:37;27.80;50.70
56172;DHT22;42052;41.634;-0.946;2022-08-23T13:12:06;27.80;50.70
56172;DHT22;42052;41.634;-0.946;2022-08-23T13:19:47;27.80;50.60
56172;DHT22;42052;41.634;-0.946;2022-08-23T13:30:25;27.80;50.50
56172;DHT22;42052;41.634;-0.946;2022-08-23T13:32:51;27.80;50.50
56172;DHT22;42052;41.634;-0.946;2022-08-23T13:35:39;27.80;50.60
56172;DHT22;42052;41.634;-0.946;2022-08-23T13:40:54;27.80;50.60
56172;DHT22;42052;41.634;-0.946;2022-08-23T13:46:34;27.80;50.60
56172;DHT22;42052;41.634;-0.946;2022-08-23T13:49:25;27.90;50.70
56172;DHT22;42052;41.634;-0.946;2022-08-23T13:54:26;27.90;50.60
56172;DHT22;42052;41.634;-0.946;2022-08-23T13:57:02;27.90;50.60
56172;DHT22;42052;41.634;-0.946;2022-08-23T13:59:30;27.90;50.60
56172;DHT22;42052;41.634;-0.946;2022-08-23T14:01:58;27.90;50.60
56172;DHT22;42052;41.634;-0.946;2022-08-23T14:04:24;27.90;50.60
56172;DHT22;42052;41.634;-0.946;2022-08-23T14:06:50;27.90;50.60
56172;DHT22;42052;41.634;-0.946;2022-08-23T14:09:16;27.90;50.60
56172;DHT22;42052;41.634;-0.946;2022-08-23T14:11:43;27.80;50.50
56172;DHT22;42052;41.634;-0.946;2022-08-23T14:14:10;27.90;50.50
56172;DHT22;42052;41.634;-0.946;2022-08-23T14:16:37;27.90;50.60
56172;DHT22;42052;41.634;-0.946;2022-08-23T14:19:04;27.90;50.50
56172;DHT22;42052;41.634;-0.946;2022-08-23T14:21:30;27.90;50.50
56172;DHT22;42052;41.634;-0.946;2022-08-23T14:23:56;27.90;50.60
56172;DHT22;42052;41.634;-0.946;2022-08-23T14:26:22;27.90;50.70
56172;DHT22;42052;41.634;-0.946;2022-08-23T14:28:49;27.90;50.60
56172;DHT22;42052;41.634;-0.946;2022-08-23T14:31:15;27.90;50.70
56172;DHT22;42052;41.634;-0.946;2022-08-23T14:33:42;27.90;50.90
56172;DHT22;42052;41.634;-0.946;2022-08-23T14:36:08;27.90;50.60
56172;DHT22;42052;41.634;-0.946;2022-08-23T14:38:34;27.90;50.60
56172;DHT22;42052;41.634;-0.946;2022-08-23T14:41:06;27.90;50.60
56172;DHT22;42052;41.634;-0.946;2022-08-23T14:43:32;27.90;50.60
56172;DHT22;42052;41.634;-0.946;2022-08-23T14:45:58;27.90;50.60
56172;DHT22;42052;41.634;-0.946;2022-08-23T14:48:25;27.90;50.60
56172;DHT22;42052;41.634;-0.946;2022-08-23T14:50:52;28.00;50.70
56172;DHT22;42052;41.634;-0.946;2022-08-23T14:53:22;28.00;50.60
56172;DHT22;42052;41.634;-0.946;2022-08-23T14:55:48;28.00;50.70
56172;DHT22;42052;41.634;-0.946;2022-08-23T14:58:22;27.90;50.50
56172;DHT22;42052;41.634;-0.946;2022-08-23T15:00:49;27.90;50.60
56172;DHT22;42052;41.634;-0.946;2022-08-23T15:03:22;28.00;50.60
56172;DHT22;42052;41.634;-0.946;2022-08-23T15:05:48;28.00;50.60
56172;DHT22;42052;41.634;-0.946;2022-08-23T15:08:14;28.00;50.60
56172;DHT22;42052;41.634;-0.946;2022-08-23T15:10:40;28.00;50.50
56172;DHT22;42052;41.634;-0.946;2022-08-23T15:13:06;28.00;50.60
56172;DHT22;42052;41.634;-0.946;2022-08-23T15:15:33;28.00;50.50
56172;DHT22;42052;41.634;-0.946;2022-08-23T15:18:01;28.00;50.50
56172;DHT22;42052;41.634;-0.946;2022-08-23T15:20:33;28.00;50.50
56172;DHT22;42052;41.634;-0.946;2022-08-23T15:23:00;28.00;50.50
56172;DHT22;42052;41.634;-0.946;2022-08-23T15:25:30;28.00;50.50
56172;DHT22;42052;41.634;-0.946;2022-08-23T15:27:57;28.00;50.50
56172;DHT22;42052;41.634;-0.946;2022-08-23T15:30:23;28.00;50.50
56172;DHT22;42052;41.634;-0.946;2022-08-23T15:32:49;28.00;50.50
56172;DHT22;42052;41.634;-0.946;2022-08-23T15:35:15;28.00;50.50
56172;DHT22;42052;41.634;-0.946;2022-08-23T15:37:41;28.00;50.50
56172;DHT22;42052;41.634;-0.946;2022-08-23T15:40:08;28.00;50.50
56172;DHT22;42052;41.634;-0.946;2022-08-23T15:42:34;28.10;50.50
56172;DHT22;42052;41.634;-0.946;2022-08-23T15:45:00;28.00;50.40
56172;DHT22;42052;41.634;-0.946;2022-08-23T15:47:49;28.10;50.60
56172;DHT22;42052;41.634;-0.946;2022-08-23T15:50:21;28.10;50.60
56172;DHT22;42052;41.634;-0.946;2022-08-23T15:52:48;28.10;50.70
56172;DHT22;42052;41.634;-0.946;2022-08-23T15:55:14;28.10;50.50
56172;DHT22;42052;41.634;-0.946;2022-08-23T15:57:44;28.10;50.50
56172;DHT22;42052;41.634;-0.946;2022-08-23T16:00:14;28.10;50.60
56172;DHT22;42052;41.634;-0.946;2022-08-23T16:02:42;28.10;50.60
56172;DHT22;42052;41.634;-0.946;2022-08-23T16:05:09;28.10;50.50
56172;DHT22;42052;41.634;-0.946;2022-08-23T16:07:35;28.10;50.60
56172;DHT22;42052;41.634;-0.946;2022-08-23T16:10:04;28.10;50.60
56172;DHT22;42052;41.634;-0.946;2022-08-23T16:12:31;28.10;50.60
56172;DHT22;42052;41.634;-0.946;2022-08-23T16:14:57;28.10;51.10
56172;DHT22;42052;41.634;-0.946;2022-08-23T16:17:23;28.10;51.00
56172;DHT22;42052;41.634;-0.946;2022-08-23T16:19:50;28.10;50.90
56172;DHT22;42052;41.634;-0.946;2022-08-23T16:22:16;28.10;50.80
56172;DHT22;42052;41.634;-0.946;2022-08-23T16:24:42;28.10;50.70
56172;DHT22;42052;41.634;-0.946;2022-08-23T16:27:08;28.10;50.70
56172;DHT22;42052;41.634;-0.946;2022-08-23T16:29:34;28.10;50.70
56172;DHT22;42052;41.634;-0.946;2022-08-23T16:32:04;28.10;50.60
56172;DHT22;42052;41.634;-0.946;2022-08-23T16:34:31;28.10;50.70
56172;DHT22;42052;41.634;-0.946;2022-08-23T16:37:00;28.10;50.60
56172;DHT22;42052;41.634;-0.946;2022-08-23T16:39:29;28.10;50.60
56172;DHT22;42052;41.634;-0.946;2022-08-23T16:41:57;28.10;50.60
56172;DHT22;42052;41.634;-0.946;2022-08-23T16:44:26;28.10;50.60
56172;DHT22;42052;41.634;-0.946;2022-08-23T16:46:52;28.10;50.60
56172;DHT22;42052;41.634;-0.946;2022-08-23T16:49:19;28.10;50.60
56172;DHT22;42052;41.634;-0.946;2022-08-23T16:51:45;28.10;50.70
56172;DHT22;42052;41.634;-0.946;2022-08-23T16:54:11;28.10;50.80
56172;DHT22;42052;41.634;-0.946;2022-08-23T16:56:38;28.10;50.70
56172;DHT22;42052;41.634;-0.946;2022-08-23T16:59:07;28.10;50.70
56172;DHT22;42052;41.634;-0.946;2022-08-23T17:01:51;28.10;50.70
56172;DHT22;42052;41.634;-0.946;2022-08-23T17:04:19;28.10;50.70
56172;DHT22;42052;41.634;-0.946;2022-08-23T17:06:45;28.10;50.80
56172;DHT22;42052;41.634;-0.946;2022-08-23T17:09:12;28.10;50.80
56172;DHT22;42052;41.634;-0.946;2022-08-23T17:11:40;28.10;50.80
56172;DHT22;42052;41.634;-0.946;2022-08-23T17:14:07;28.10;50.80
56172;DHT22;42052;41.634;-0.946;2022-08-23T17:16:33;28.20;51.00
56172;DHT22;42052;41.634;-0.946;2022-08-23T17:18:59;28.20;50.90
56172;DHT22;42052;41.634;-0.946;2022-08-23T17:21:25;28.20;50.90
56172;DHT22;42052;41.634;-0.946;2022-08-23T17:23:51;28.20;50.90
56172;DHT22;42052;41.634;-0.946;2022-08-23T17:26:18;28.20;50.90
56172;DHT22;42052;41.634;-0.946;2022-08-23T17:28:44;28.20;50.90
56172;DHT22;42052;41.634;-0.946;2022-08-23T17:31:11;28.20;51.60
56172;DHT22;42052;41.634;-0.946;2022-08-23T17:33:38;28.20;50.90